createdAt,value
2022-09-20T00:01:32.914Z,0.50
2022-09-20T00:04:04.288Z,0.32
2022-09-20T00:06:32.209Z,0.32
2022-09-20T00:09:00.687Z,0.10
2022-09-20T00:11:31.753Z,0.20
2022-09-20T00:14:01.182Z,0.10
2022-09-20T00:16:32.802Z,0.05
2022-09-20T00:19:03.338Z,0.10
2022-09-20T00:21:32.670Z,0.10
2022-09-20T00:24:00.137Z,0.20
2022-09-20T00:26:28.536Z,0.00
2022-09-20T00:28:57.940Z,0.30
2022-09-20T00:31:25.372Z,0.00
2022-09-20T00:34:16.470Z,0.00
2022-09-20T00:36:44.971Z,0.10
2022-09-20T00:39:14.837Z,0.13
2022-09-20T00:41:42.616Z,0.08
2022-09-20T00:44:47.232Z,0.10
2022-09-20T00:47:42.040Z,0.20
2022-09-20T00:50:45.660Z,0.30
2022-09-20T00:53:25.549Z,0.10
2022-09-20T00:56:15.493Z,0.10
2022-09-20T00:58:50.442Z,0.30
2022-09-20T01:01:18.049Z,0.10
2022-09-20T01:03:46.742Z,0.13
2022-09-20T01:06:16.315Z,0.30
2022-09-20T01:08:50.127Z,0.20
2022-09-20T01:11:17.741Z,0.45
2022-09-20T01:13:44.786Z,0.30
2022-09-20T01:16:14.415Z,0.40
2022-09-20T01:18:42.462Z,0.30
2022-09-20T01:21:10.354Z,0.30
2022-09-20T01:24:13.770Z,0.40
2022-09-20T01:26:57.451Z,0.50
2022-09-20T01:29:55.857Z,0.40
2022-09-20T01:32:27.995Z,0.25
2022-09-20T01:34:59.656Z,0.30
2022-09-20T01:37:43.136Z,0.47
2022-09-20T01:40:31.029Z,0.50
2022-09-20T01:43:31.529Z,0.32
2022-09-20T01:46:31.715Z,0.63
2022-09-20T01:49:20.850Z,0.40
2022-09-20T01:55:23.640Z,0.50
2022-09-20T01:58:06.700Z,0.70
2022-09-20T02:01:02.083Z,0.55
2022-09-20T02:03:50.682Z,0.98
2022-09-20T02:06:20.497Z,0.65
2022-09-20T02:09:39.950Z,0.82
2022-09-20T02:12:54.610Z,0.77
2022-09-20T02:16:18.266Z,1.13
2022-09-20T02:19:33.489Z,0.88
2022-09-20T02:22:56.283Z,1.15
2022-09-20T02:25:45.300Z,0.93
2022-09-20T02:28:49.410Z,1.00
2022-09-20T02:32:02.543Z,0.95
2022-09-20T02:35:07.182Z,1.10
2022-09-20T02:38:26.959Z,1.50
2022-09-20T02:42:02.137Z,1.27
2022-09-20T02:45:08.199Z,1.73
2022-09-20T02:47:42.649Z,1.70
2022-09-20T02:51:14.569Z,1.48
2022-09-20T02:54:26.428Z,1.02
2022-09-20T02:57:09.351Z,1.88
2022-09-20T03:00:05.553Z,1.77
2022-09-20T03:03:17.536Z,1.58
2022-09-20T03:06:07.639Z,1.50
2022-09-20T03:09:16.562Z,2.17
2022-09-20T03:12:39.190Z,2.20
2022-09-20T03:15:39.878Z,2.85
2022-09-20T03:18:19.032Z,2.88
2022-09-20T03:21:10.922Z,2.40
2022-09-20T03:24:13.299Z,2.78
2022-09-20T03:27:16.537Z,4.53
2022-09-20T03:30:14.618Z,2.40
2022-09-20T03:32:41.610Z,2.20
2022-09-20T03:35:27.496Z,2.08
2022-09-20T03:38:38.985Z,2.03
2022-09-20T03:41:50.156Z,3.13
2022-09-20T03:44:53.633Z,2.90
2022-09-20T03:48:01.077Z,1.98
2022-09-20T03:50:51.072Z,1.63
2022-09-20T03:53:50.480Z,4.00
2022-09-20T03:56:20.579Z,1.92
2022-09-20T03:59:38.288Z,3.60
2022-09-20T04:02:32.355Z,3.53
2022-09-20T04:05:02.469Z,4.07
2022-09-20T04:07:44.307Z,2.67
2022-09-20T04:10:46.361Z,3.92
2022-09-20T04:13:43.850Z,2.72
2022-09-20T04:17:15.723Z,3.40
2022-09-20T04:19:56.354Z,2.65
2022-09-20T04:22:25.973Z,2.22
2022-09-20T04:25:33.131Z,1.98
2022-09-20T04:28:11.339Z,2.47
2022-09-20T04:30:43.392Z,2.08
2022-09-20T04:33:33.239Z,2.80
2022-09-20T04:36:57.361Z,1.73
2022-09-20T04:39:58.881Z,2.25
2022-09-20T04:43:01.183Z,2.42
2022-09-20T04:46:22.552Z,1.85
2022-09-20T04:49:33.052Z,2.28
2022-09-20T04:52:13.965Z,2.75
2022-09-20T04:55:17.700Z,1.75
2022-09-20T04:58:12.421Z,1.38
2022-09-20T05:01:16.192Z,1.30
2022-09-20T05:04:28.007Z,2.22
2022-09-20T05:07:13.028Z,1.52
2022-09-20T05:10:14.813Z,0.90
2022-09-20T05:13:04.705Z,1.55
2022-09-20T05:16:08.638Z,1.15
2022-09-20T05:19:06.884Z,1.02
2022-09-20T05:21:49.319Z,0.88
2022-09-20T05:24:52.112Z,1.40
2022-09-20T05:27:53.707Z,1.42
2022-09-20T05:30:32.887Z,0.82
2022-09-20T05:33:32.968Z,0.98
2022-09-20T05:36:56.578Z,0.88
2022-09-20T05:39:36.371Z,1.55
2022-09-20T05:42:39.714Z,0.88
2022-09-20T05:45:37.622Z,1.25
2022-09-20T05:48:47.531Z,0.95
2022-09-20T05:51:48.084Z,1.73
2022-09-20T05:54:43.944Z,0.93
2022-09-20T05:57:44.947Z,0.80
2022-09-20T06:00:20.874Z,1.10
2022-09-20T06:03:08.957Z,1.27
2022-09-20T06:06:20.715Z,0.32
2022-09-20T06:09:23.105Z,0.60
2022-09-20T06:12:26.022Z,0.50
2022-09-20T06:15:03.357Z,0.35
2022-09-20T06:17:48.949Z,0.35
2022-09-20T06:20:30.821Z,1.15
2022-09-20T06:23:01.552Z,1.30
2022-09-20T06:25:55.439Z,1.00
2022-09-20T06:28:32.832Z,0.32
2022-09-20T06:31:00.185Z,0.45
2022-09-20T06:33:29.569Z,0.22
2022-09-20T06:36:56.090Z,0.88
2022-09-20T06:40:16.709Z,0.50
2022-09-20T06:42:44.157Z,1.13
2022-09-20T06:45:11.342Z,0.57
2022-09-20T06:47:39.033Z,1.08
2022-09-20T06:50:06.755Z,1.25
2022-09-20T06:52:35.024Z,1.20
2022-09-20T06:55:06.777Z,1.38
2022-09-20T06:57:37.417Z,1.02
2022-09-20T07:00:11.005Z,0.45
2022-09-20T07:02:38.238Z,0.50
2022-09-20T07:05:06.943Z,0.20
2022-09-20T07:07:34.149Z,0.68
2022-09-20T07:10:01.250Z,3.80
2022-09-20T07:12:32.836Z,0.90
2022-09-20T07:15:00.005Z,1.33
2022-09-20T07:17:27.180Z,1.23
2022-09-20T07:19:56.425Z,1.13
2022-09-20T07:22:23.771Z,1.00
2022-09-20T07:24:50.846Z,0.70
2022-09-20T07:27:18.372Z,0.52
2022-09-20T07:29:45.609Z,0.20
2022-09-20T07:32:12.730Z,1.30
2022-09-20T07:34:39.961Z,0.55
2022-09-20T07:37:07.064Z,0.40
2022-09-20T07:39:34.271Z,0.30
2022-09-20T07:42:05.537Z,0.40
2022-09-20T07:44:32.652Z,0.73
2022-09-20T07:47:00.610Z,0.28
2022-09-20T07:49:31.359Z,0.20
2022-09-20T07:51:58.904Z,0.50
2022-09-20T07:54:29.519Z,0.20
2022-09-20T07:56:56.646Z,0.40
2022-09-20T07:59:23.754Z,0.20
2022-09-20T08:01:50.969Z,0.32
2022-09-20T08:04:18.151Z,0.25
2022-09-20T08:06:45.780Z,0.20
2022-09-20T08:09:13.750Z,0.10
2022-09-20T08:11:42.864Z,0.93
2022-09-20T08:16:46.645Z,0.73
2022-09-20T08:19:24.095Z,0.93
2022-09-20T08:21:53.343Z,0.10
2022-09-20T08:26:48.001Z,0.35
2022-09-20T08:29:15.623Z,0.15
2022-09-20T08:31:43.448Z,0.45
2022-09-20T08:34:14.274Z,0.40
2022-09-20T08:36:46.057Z,0.65
2022-09-20T08:42:26.542Z,0.20
2022-09-20T08:45:02.024Z,0.20
2022-09-20T08:47:38.149Z,0.25
2022-09-20T08:50:11.536Z,0.60
2022-09-20T08:52:40.097Z,0.22
2022-09-20T08:55:17.202Z,0.22
2022-09-20T08:57:54.837Z,1.48
2022-09-20T09:00:32.672Z,0.60
2022-09-20T09:03:16.295Z,0.30
2022-09-20T09:05:45.956Z,0.55
2022-09-20T09:08:17.248Z,0.50
2022-09-20T09:10:54.148Z,0.77
2022-09-20T09:13:53.994Z,1.45
2022-09-20T09:16:33.638Z,0.63
2022-09-20T09:19:37.044Z,0.82
2022-09-20T09:22:05.509Z,0.75
2022-09-20T09:24:32.745Z,0.10
2022-09-20T09:27:16.142Z,0.55
2022-09-20T09:29:55.234Z,0.55
2022-09-20T09:35:03.038Z,0.00
2022-09-20T09:37:31.952Z,0.32
2022-09-20T09:40:18.431Z,0.10
2022-09-20T09:43:00.970Z,0.32
2022-09-20T09:45:37.785Z,0.60
2022-09-20T09:48:30.670Z,0.35
2022-09-20T09:51:14.609Z,0.17
2022-09-20T09:53:43.244Z,1.00
2022-09-20T09:56:46.692Z,0.20
2022-09-20T09:59:41.594Z,0.10
2022-09-20T10:02:56.268Z,0.20
2022-09-20T10:05:58.160Z,0.17
2022-09-20T10:09:11.456Z,0.10
2022-09-20T10:12:27.934Z,0.28
2022-09-20T10:15:09.723Z,0.17
2022-09-20T10:17:55.078Z,0.10
2022-09-20T10:21:00.531Z,0.10
2022-09-20T10:24:04.195Z,0.47
2022-09-20T10:26:47.539Z,0.10
2022-09-20T10:29:59.767Z,0.05
2022-09-20T10:32:41.347Z,0.50
2022-09-20T10:35:45.509Z,0.20
2022-09-20T10:38:22.863Z,0.20
2022-09-20T10:42:01.374Z,0.22
2022-09-20T10:44:50.525Z,0.10
2022-09-20T10:47:24.438Z,0.20
2022-09-20T10:50:00.358Z,0.65
2022-09-20T10:52:51.475Z,0.40
2022-09-20T10:56:10.550Z,0.22
2022-09-20T10:59:20.047Z,0.28
2022-09-20T11:02:18.627Z,0.15
2022-09-20T11:05:29.027Z,0.00
2022-09-20T11:08:22.043Z,0.00
2022-09-20T11:10:58.898Z,0.10
2022-09-20T11:13:54.098Z,0.40
2022-09-20T11:17:00.141Z,0.00
2022-09-20T11:20:14.844Z,0.17
2022-09-20T11:23:05.275Z,1.10
2022-09-20T11:25:46.734Z,0.80
2022-09-20T11:28:35.466Z,0.10
2022-09-20T11:31:12.291Z,0.52
2022-09-20T11:33:51.680Z,0.47
2022-09-20T11:36:41.056Z,0.47
2022-09-20T11:39:23.158Z,0.93
2022-09-20T11:41:54.354Z,0.38
2022-09-20T11:44:21.813Z,0.40
2022-09-20T11:47:02.443Z,1.52
2022-09-20T11:50:00.141Z,0.10
2022-09-20T11:53:13.483Z,0.08
2022-09-20T11:55:58.344Z,0.08
2022-09-20T11:58:27.151Z,0.63
2022-09-20T12:00:58.497Z,0.57
2022-09-20T12:03:40.973Z,0.30
2022-09-20T12:06:25.314Z,0.30
2022-09-20T12:08:53.019Z,0.60
2022-09-20T12:11:33.474Z,0.28
2022-09-20T12:14:07.676Z,0.20
2022-09-20T12:16:42.559Z,0.30
2022-09-20T12:19:35.868Z,0.63
2022-09-20T12:22:03.490Z,0.50
2022-09-20T12:24:43.187Z,0.15
2022-09-20T12:27:41.217Z,0.20
2022-09-20T12:30:21.500Z,0.10
2022-09-20T12:32:55.637Z,0.85
2022-09-20T12:35:44.712Z,0.35
2022-09-20T12:38:20.897Z,0.20
2022-09-20T12:41:12.291Z,0.35
2022-09-20T12:44:05.032Z,0.03
2022-09-20T12:47:13.165Z,0.57
2022-09-20T12:50:06.390Z,0.88
2022-09-20T12:53:03.928Z,0.10
2022-09-20T12:56:01.267Z,1.00
2022-09-20T12:58:53.586Z,0.47
2022-09-20T13:01:21.782Z,0.22
2022-09-20T13:03:50.270Z,0.77
2022-09-20T13:06:18.519Z,0.20
2022-09-20T13:08:58.330Z,0.10
2022-09-20T13:11:53.500Z,0.65
2022-09-20T13:14:30.681Z,0.15
2022-09-20T13:17:17.375Z,0.20
2022-09-20T13:19:50.298Z,0.57
2022-09-20T13:22:41.452Z,0.30
2022-09-20T13:25:15.115Z,0.40
2022-09-20T13:27:50.668Z,0.20
2022-09-20T13:30:26.261Z,0.30
2022-09-20T13:32:54.414Z,0.30
2022-09-20T13:35:23.733Z,0.65
2022-09-20T13:38:02.210Z,0.20
2022-09-20T13:40:49.956Z,0.30
2022-09-20T13:43:40.910Z,0.10
2022-09-20T13:46:12.444Z,0.00
2022-09-20T13:48:40.153Z,0.10
2022-09-20T13:51:25.835Z,0.20
2022-09-20T13:53:53.382Z,0.20
2022-09-20T13:56:28.122Z,1.40
2022-09-20T13:58:58.149Z,0.47
2022-09-20T14:01:36.155Z,0.32
2022-09-20T14:04:30.573Z,0.13
2022-09-20T14:06:59.175Z,1.35
2022-09-20T14:09:29.172Z,0.80
2022-09-20T14:11:58.509Z,0.22
2022-09-20T14:14:27.045Z,0.20
2022-09-20T14:16:56.666Z,0.85
2022-09-20T14:19:40.035Z,1.10
2022-09-20T14:22:22.045Z,1.20
2022-09-20T14:25:11.876Z,0.68
2022-09-20T14:27:39.335Z,0.50
2022-09-20T14:30:27.161Z,1.10
2022-09-20T14:32:56.458Z,0.20
2022-09-20T14:35:23.589Z,1.10
2022-09-20T14:37:54.311Z,0.43
2022-09-20T14:40:31.316Z,0.28
2022-09-20T14:43:04.777Z,0.63
2022-09-20T14:45:39.079Z,0.30
2022-09-20T14:48:26.025Z,0.20
2022-09-20T14:51:21.401Z,2.05
2022-09-20T14:54:05.530Z,1.05
2022-09-20T14:56:38.800Z,1.60
2022-09-20T14:59:13.295Z,1.63
2022-09-20T15:01:45.245Z,1.65
2022-09-20T15:04:24.730Z,0.30
2022-09-20T15:06:52.558Z,1.50
2022-09-20T15:09:21.296Z,0.75
2022-09-20T15:12:06.687Z,0.22
2022-09-20T15:14:37.908Z,1.25
2022-09-20T15:17:05.591Z,0.98
2022-09-20T15:19:33.780Z,0.45
2022-09-20T15:22:01.198Z,0.33
2022-09-20T15:24:28.290Z,1.20
2022-09-20T15:26:55.374Z,0.80
2022-09-20T15:29:22.745Z,1.27
2022-09-20T15:31:50.022Z,2.08
2022-09-20T15:34:18.212Z,1.63
2022-09-20T15:36:45.366Z,1.73
2022-09-20T15:39:12.717Z,0.80
2022-09-20T15:41:40.217Z,1.13
2022-09-20T15:44:07.695Z,0.43
2022-09-20T15:46:34.843Z,0.65
2022-09-20T15:49:04.510Z,2.22
2022-09-20T15:51:32.291Z,1.02
2022-09-20T15:54:05.580Z,4.32
2022-09-20T15:56:36.596Z,1.52
2022-09-20T15:59:08.253Z,1.55
2022-09-20T16:01:44.159Z,0.77
2022-09-20T16:04:19.370Z,0.85
2022-09-20T16:06:49.351Z,0.60
2022-09-20T16:09:17.556Z,1.38
2022-09-20T16:11:46.587Z,0.90
2022-09-20T16:16:41.037Z,0.47
2022-09-20T16:19:17.486Z,1.52
2022-09-20T16:21:57.335Z,0.73
2022-09-20T16:24:36.084Z,1.73
2022-09-20T16:27:06.561Z,2.10
2022-09-20T16:29:34.258Z,0.77
2022-09-20T16:32:05.508Z,1.70
2022-09-20T16:34:35.216Z,3.17
2022-09-20T16:37:11.249Z,1.75
2022-09-20T16:39:40.225Z,1.35
2022-09-20T16:42:10.475Z,1.70
2022-09-20T16:44:42.070Z,3.22
2022-09-20T16:47:21.459Z,3.78
2022-09-20T16:49:50.660Z,3.33
2022-09-20T16:52:17.813Z,7.97
2022-09-20T16:54:46.005Z,2.10
2022-09-20T16:57:13.868Z,2.33
2022-09-20T16:59:41.322Z,1.42
2022-09-20T17:02:14.979Z,1.20
2022-09-20T17:04:43.041Z,2.17
2022-09-20T17:07:10.180Z,0.90
2022-09-20T17:09:37.361Z,1.60
2022-09-20T17:12:08.668Z,1.65
2022-09-20T17:14:36.472Z,4.63
2022-09-20T17:17:03.992Z,5.22
2022-09-20T17:19:31.113Z,3.75
2022-09-20T17:21:59.487Z,2.80
2022-09-20T17:24:26.716Z,3.22
2022-09-20T17:26:54.052Z,2.22
2022-09-20T17:29:21.271Z,1.90
2022-09-20T17:31:55.719Z,4.00
2022-09-20T17:34:24.858Z,6.28
2022-09-20T17:36:54.318Z,6.15
2022-09-20T17:39:21.468Z,6.13
2022-09-20T17:41:50.407Z,3.70
2022-09-20T17:44:18.285Z,2.97
2022-09-20T17:46:48.927Z,2.70
2022-09-20T17:49:20.476Z,1.92
2022-09-20T17:51:50.702Z,2.42
2022-09-20T17:54:19.203Z,3.35
2022-09-20T17:56:49.657Z,3.45
2022-09-20T17:59:18.894Z,3.00
2022-09-20T18:01:50.001Z,2.00
2022-09-20T18:04:20.129Z,3.08
2022-09-20T18:06:52.682Z,1.42
2022-09-20T18:09:24.074Z,2.00
2022-09-20T18:11:54.530Z,6.75
2022-09-20T18:14:27.836Z,2.28
2022-09-20T18:17:00.117Z,2.05
2022-09-20T18:19:31.915Z,2.55
2022-09-20T18:22:00.076Z,3.58
2022-09-20T18:24:27.240Z,1.15
2022-09-20T18:26:54.542Z,1.25
2022-09-20T18:29:21.732Z,1.48
2022-09-20T18:31:53.605Z,2.05
2022-09-20T18:34:24.300Z,2.00
2022-09-20T18:36:54.539Z,1.63
2022-09-20T18:39:34.307Z,1.05
2022-09-20T18:42:02.894Z,3.10
2022-09-20T18:44:33.442Z,1.60
2022-09-20T18:47:02.093Z,1.60
2022-09-20T18:49:29.954Z,1.35
2022-09-20T18:51:57.748Z,2.08
2022-09-20T18:54:26.311Z,10.75
2022-09-20T18:56:53.930Z,6.00
2022-09-20T18:59:26.637Z,5.97
2022-09-20T19:02:06.387Z,4.85
2022-09-20T19:05:06.099Z,4.78
2022-09-20T19:07:55.999Z,4.22
2022-09-20T19:10:38.432Z,3.92
2022-09-20T19:13:39.331Z,5.07
2022-09-20T19:16:33.223Z,4.57
2022-09-20T19:19:44.629Z,4.15
2022-09-20T19:22:36.331Z,7.25
2022-09-20T19:25:17.497Z,5.05
2022-09-20T19:27:45.275Z,5.13
2022-09-20T19:30:14.522Z,6.00
2022-09-20T19:35:27.850Z,4.57
2022-09-20T19:38:14.768Z,5.18
2022-09-20T19:40:56.337Z,4.57
2022-09-20T19:43:47.176Z,4.88
2022-09-20T19:46:52.496Z,5.10
2022-09-20T19:49:26.683Z,4.28
2022-09-20T19:51:57.265Z,4.30
2022-09-20T19:54:25.811Z,4.70
2022-09-20T19:56:58.763Z,4.43
2022-09-20T19:59:27.337Z,3.28
2022-09-20T20:01:55.922Z,5.68
2022-09-20T20:04:23.465Z,3.33
2022-09-20T20:07:24.255Z,2.78
2022-09-20T20:09:55.053Z,2.63
2022-09-20T20:12:37.873Z,2.90
2022-09-20T20:15:34.698Z,4.00
2022-09-20T20:18:23.492Z,3.40
2022-09-20T20:20:55.904Z,3.20
2022-09-20T20:24:03.895Z,3.08
2022-09-20T20:26:31.296Z,3.25
2022-09-20T20:28:59.399Z,4.65
2022-09-20T20:31:26.628Z,5.65
2022-09-20T20:33:54.203Z,4.28
2022-09-20T20:36:21.501Z,3.63
2022-09-20T20:38:51.103Z,4.45
2022-09-20T20:41:21.037Z,4.68
2022-09-20T20:43:55.743Z,5.05
2022-09-20T20:46:24.419Z,4.15
2022-09-20T20:48:51.660Z,3.80
2022-09-20T20:51:21.574Z,3.90
2022-09-20T20:53:51.658Z,2.55
2022-09-20T20:56:29.771Z,2.55
2022-09-20T20:59:01.445Z,3.33
2022-09-20T21:01:36.528Z,4.50
2022-09-20T21:04:07.209Z,4.93
2022-09-20T21:06:36.076Z,5.60
2022-09-20T21:09:05.164Z,5.20
2022-09-20T21:11:35.855Z,6.07
2022-09-20T21:14:06.610Z,11.95
2022-09-20T21:16:37.396Z,13.02
2022-09-20T21:19:06.252Z,11.85
2022-09-20T21:21:37.768Z,11.27
2022-09-20T21:24:07.984Z,12.32
2022-09-20T21:26:37.370Z,16.23
2022-09-20T21:29:10.523Z,18.50
2022-09-20T21:31:40.900Z,13.65
2022-09-20T21:34:09.779Z,9.10
2022-09-20T21:36:38.863Z,10.23
2022-09-20T21:39:06.557Z,6.47
2022-09-20T21:41:37.379Z,7.00
2022-09-20T21:44:06.723Z,5.20
2022-09-20T21:49:05.744Z,5.40
2022-09-20T21:54:01.679Z,6.95
2022-09-20T21:56:35.109Z,5.93
2022-09-20T21:59:03.697Z,5.50
2022-09-20T22:01:34.316Z,5.63
2022-09-20T22:04:07.063Z,5.28
2022-09-20T22:06:37.792Z,8.05
2022-09-20T22:09:14.659Z,7.43
2022-09-20T22:11:48.790Z,7.30
2022-09-20T22:14:18.757Z,7.30
2022-09-20T22:16:48.650Z,8.32
2022-09-20T22:19:17.170Z,6.43
2022-09-20T22:21:47.503Z,7.17
2022-09-20T22:24:16.170Z,6.95
2022-09-20T22:26:49.432Z,4.88
2022-09-20T22:29:17.600Z,4.82
2022-09-20T22:31:47.258Z,5.20
2022-09-20T22:34:20.818Z,6.20
2022-09-20T22:36:48.629Z,5.50
2022-09-20T22:39:16.528Z,4.45
2022-09-20T22:41:44.255Z,5.50
2022-09-20T22:44:11.372Z,4.97
2022-09-20T22:46:39.022Z,4.65
2022-09-20T22:49:07.644Z,4.28
2022-09-20T22:51:35.081Z,5.13
2022-09-20T22:54:10.809Z,4.35
2022-09-20T22:56:40.561Z,4.78
2022-09-20T22:59:13.692Z,3.78
2022-09-20T23:01:47.157Z,4.95
2022-09-20T23:04:19.621Z,4.15
2022-09-20T23:06:56.254Z,3.45
2022-09-20T23:09:27.639Z,3.10
2022-09-20T23:11:55.056Z,4.05
2022-09-20T23:14:23.186Z,3.10
2022-09-20T23:16:50.444Z,3.50
2022-09-20T23:19:17.919Z,4.22
2022-09-20T23:21:45.307Z,4.30
2022-09-20T23:24:15.148Z,4.95
2022-09-20T23:26:43.980Z,4.30
2022-09-20T23:29:16.369Z,3.72
2022-09-20T23:31:46.929Z,4.22
2022-09-20T23:34:15.689Z,4.40
2022-09-20T23:36:43.900Z,5.23
2022-09-20T23:39:12.015Z,4.35
2022-09-20T23:41:40.723Z,5.13
2022-09-20T23:44:09.385Z,5.03
2022-09-20T23:46:37.011Z,4.93
2022-09-20T23:49:04.548Z,4.45
2022-09-20T23:51:32.011Z,6.85
2022-09-20T23:53:59.259Z,6.88
2022-09-20T23:56:26.868Z,6.07
2022-09-20T23:58:54.195Z,5.13
